sensor_id;sensor_type;location;lat;lon;timestamp;pressure;altitude;pressure_sealevel;temperature;humidity
71764;BME280;59602;52.142;5.408;2022-07-15T00:00:46;102412.19;;;16.22;65.65
71764;BME280;59602;52.142;5.408;2022-07-15T00:03:13;102415.69;;;16.19;65.90
71764;BME280;59602;52.142;5.408;2022-07-15T00:05:39;102409.41;;;16.18;65.38
71764;BME280;59602;52.142;5.408;2022-07-15T00:08:06;102414.09;;;16.18;65.48
71764;BME280;59602;52.142;5.408;2022-07-15T00:10:32;102413.28;;;16.14;65.49
71764;BME280;59602;52.142;5.408;2022-07-15T00:13:01;102407.00;;;16.10;65.77
71764;BME280;59602;52.142;5.408;2022-07-15T00:15:30;102415.59;;;16.08;65.89
71764;BME280;59602;52.142;5.408;2022-07-15T00:17:58;102414.81;;;16.08;66.01
71764;BME280;59602;52.142;5.408;2022-07-15T00:20:29;102418.31;;;16.05;65.70
71764;BME280;59602;52.142;5.408;2022-07-15T00:23:03;102408.88;;;16.02;65.90
71764;BME280;59602;52.142;5.408;2022-07-15T00:25:30;102414.78;;;16.04;65.98
71764;BME280;59602;52.142;5.408;2022-07-15T00:27:58;102414.81;;;16.08;66.03
71764;BME280;59602;52.142;5.408;2022-07-15T00:30:35;102412.06;;;16.08;65.79
71764;BME280;59602;52.142;5.408;2022-07-15T00:33:03;102412.81;;;16.05;65.80
71764;BME280;59602;52.142;5.408;2022-07-15T00:35:33;102414.34;;;16.02;65.84
71764;BME280;59602;52.142;5.408;2022-07-15T00:38:00;102410.84;;;16.02;65.72
71764;BME280;59602;52.142;5.408;2022-07-15T00:40:27;102410.84;;;16.02;65.77
71764;BME280;59602;52.142;5.408;2022-07-15T00:42:54;102413.94;;;16.00;65.85
71764;BME280;59602;52.142;5.408;2022-07-15T00:45:22;102413.94;;;16.00;66.50
71764;BME280;59602;52.142;5.408;2022-07-15T00:47:52;102411.59;;;15.98;66.66
71764;BME280;59602;52.142;5.408;2022-07-15T00:50:20;102406.91;;;15.99;66.85
71764;BME280;59602;52.142;5.408;2022-07-15T00:52:58;102395.94;;;16.03;66.29
71764;BME280;59602;52.142;5.408;2022-07-15T00:55:27;102397.91;;;16.02;66.79
71764;BME280;59602;52.142;5.408;2022-07-15T00:58:00;102402.56;;;15.98;66.74
71764;BME280;59602;52.142;5.408;2022-07-15T01:00:26;102396.66;;;15.92;66.73
71764;BME280;59602;52.142;5.408;2022-07-15T01:02:54;102400.53;;;15.88;66.92
71764;BME280;59602;52.142;5.408;2022-07-15T01:05:21;102397.69;;;15.81;67.03
71764;BME280;59602;52.142;5.408;2022-07-15T01:07:48;102395.72;;;15.77;67.52
71764;BME280;59602;52.142;5.408;2022-07-15T01:10:18;102397.66;;;15.77;67.15
71764;BME280;59602;52.142;5.408;2022-07-15T01:12:46;102393.31;;;15.72;67.51
71764;BME280;59602;52.142;5.408;2022-07-15T01:15:15;102391.72;;;15.71;67.20
71764;BME280;59602;52.142;5.408;2022-07-15T01:17:43;102390.94;;;15.71;67.33
71764;BME280;59602;52.142;5.408;2022-07-15T01:20:12;102394.47;;;15.71;67.44
71764;BME280;59602;52.142;5.408;2022-07-15T01:22:40;102397.16;;;15.68;67.47
71764;BME280;59602;52.142;5.408;2022-07-15T01:25:07;102399.50;;;15.66;67.31
71764;BME280;59602;52.142;5.408;2022-07-15T01:27:33;102392.03;;;15.66;67.40
71764;BME280;59602;52.142;5.408;2022-07-15T01:30:00;102392.47;;;15.68;67.38
71764;BME280;59602;52.142;5.408;2022-07-15T01:32:27;102401.06;;;15.67;67.07
71764;BME280;59602;52.142;5.408;2022-07-15T01:34:54;102404.91;;;15.62;67.50
71764;BME280;59602;52.142;5.408;2022-07-15T01:37:21;102400.63;;;15.65;67.50
71764;BME280;59602;52.142;5.408;2022-07-15T01:39:48;102402.22;;;15.66;67.68
71764;BME280;59602;52.142;5.408;2022-07-15T01:42:15;102401.41;;;15.62;67.61
71764;BME280;59602;52.142;5.408;2022-07-15T01:44:41;102398.28;;;15.63;67.74
71764;BME280;59602;52.142;5.408;2022-07-15T01:47:08;102402.56;;;15.61;67.73
71764;BME280;59602;52.142;5.408;2022-07-15T01:49:34;102405.72;;;15.63;68.13
71764;BME280;59602;52.142;5.408;2022-07-15T01:52:02;102409.56;;;15.58;68.54
71764;BME280;59602;52.142;5.408;2022-07-15T01:54:31;102407.22;;;15.56;68.88
71764;BME280;59602;52.142;5.408;2022-07-15T01:56:58;102409.97;;;15.56;68.08
71764;BME280;59602;52.142;5.408;2022-07-15T01:59:24;102405.28;;;15.57;68.58
71764;BME280;59602;52.142;5.408;2022-07-15T02:01:52;102403.69;;;15.56;68.28
71764;BME280;59602;52.142;5.408;2022-07-15T02:04:20;102406.41;;;15.52;68.77
71764;BME280;59602;52.142;5.408;2022-07-15T02:06:48;102406.75;;;15.51;68.60
71764;BME280;59602;52.142;5.408;2022-07-15T02:09:15;102403.25;;;15.50;68.38
71764;BME280;59602;52.142;5.408;2022-07-15T02:11:44;102397.00;;;15.53;68.96
71764;BME280;59602;52.142;5.408;2022-07-15T02:14:11;102401.69;;;15.53;69.13
71764;BME280;59602;52.142;5.408;2022-07-15T02:16:39;102402.88;;;15.52;68.60
71764;BME280;59602;52.142;5.408;2022-07-15T02:19:06;102396.97;;;15.50;68.88
71764;BME280;59602;52.142;5.408;2022-07-15T02:21:32;102399.31;;;15.51;69.02
71764;BME280;59602;52.142;5.408;2022-07-15T02:23:59;102392.31;;;15.54;69.40
71764;BME280;59602;52.142;5.408;2022-07-15T02:26:26;102400.16;;;15.55;68.77
71764;BME280;59602;52.142;5.408;2022-07-15T02:28:52;102396.25;;;15.56;68.37
71764;BME280;59602;52.142;5.408;2022-07-15T02:31:19;102404.06;;;15.54;68.60
71764;BME280;59602;52.142;5.408;2022-07-15T02:33:46;102403.66;;;15.52;68.98
71764;BME280;59602;52.142;5.408;2022-07-15T02:36:13;102410.28;;;15.51;68.74
71764;BME280;59602;52.142;5.408;2022-07-15T02:38:40;102409.16;;;15.56;69.13
71764;BME280;59602;52.142;5.408;2022-07-15T02:41:08;102416.25;;;15.57;68.40
71764;BME280;59602;52.142;5.408;2022-07-15T02:43:35;102407.19;;;15.53;68.44
71764;BME280;59602;52.142;5.408;2022-07-15T02:46:03;102406.41;;;15.52;68.94
71764;BME280;59602;52.142;5.408;2022-07-15T02:48:29;102409.50;;;15.51;68.77
71764;BME280;59602;52.142;5.408;2022-07-15T02:50:56;102413.03;;;15.51;68.15
71764;BME280;59602;52.142;5.408;2022-07-15T02:53:23;102407.53;;;15.51;68.80
71764;BME280;59602;52.142;5.408;2022-07-15T02:55:56;102408.31;;;15.48;68.33
71764;BME280;59602;52.142;5.408;2022-07-15T02:58:26;102417.72;;;15.47;68.52
71764;BME280;59602;52.142;5.408;2022-07-15T03:00:53;102411.00;;;15.45;68.65
71764;BME280;59602;52.142;5.408;2022-07-15T03:03:19;102410.59;;;15.43;68.64
71764;BME280;59602;52.142;5.408;2022-07-15T03:05:46;102415.25;;;15.39;68.71
71764;BME280;59602;52.142;5.408;2022-07-15T03:08:13;102425.75;;;15.33;69.06
71764;BME280;59602;52.142;5.408;2022-07-15T03:10:39;102432.41;;;15.32;69.27
71764;BME280;59602;52.142;5.408;2022-07-15T03:13:06;102426.81;;;15.25;69.41
71764;BME280;59602;52.142;5.408;2022-07-15T03:15:32;102430.31;;;15.22;69.26
71764;BME280;59602;52.142;5.408;2022-07-15T03:17:59;102427.56;;;15.22;69.18
71764;BME280;59602;52.142;5.408;2022-07-15T03:20:26;102429.16;;;15.23;69.56
71764;BME280;59602;52.142;5.408;2022-07-15T03:22:52;102422.88;;;15.22;69.75
71764;BME280;59602;52.142;5.408;2022-07-15T03:25:19;102429.53;;;15.21;69.56
71764;BME280;59602;52.142;5.408;2022-07-15T03:27:45;102438.94;;;15.24;70.01
71764;BME280;59602;52.142;5.408;2022-07-15T03:30:13;102439.31;;;15.22;69.52
71764;BME280;59602;52.142;5.408;2022-07-15T03:32:40;102445.59;;;15.23;69.82
71764;BME280;59602;52.142;5.408;2022-07-15T03:35:07;102444.38;;;15.20;69.66
71764;BME280;59602;52.142;5.408;2022-07-15T03:37:34;102443.22;;;15.21;69.32
71764;BME280;59602;52.142;5.408;2022-07-15T03:40:00;102451.81;;;15.20;69.86
71764;BME280;59602;52.142;5.408;2022-07-15T03:42:27;102453.41;;;15.21;69.68
71764;BME280;59602;52.142;5.408;2022-07-15T03:44:54;102448.34;;;15.23;70.07
71764;BME280;59602;52.142;5.408;2022-07-15T03:47:20;102457.75;;;15.25;69.86
71764;BME280;59602;52.142;5.408;2022-07-15T03:49:47;102449.16;;;15.27;70.16
71764;BME280;59602;52.142;5.408;2022-07-15T03:52:14;102458.91;;;15.24;69.67
71764;BME280;59602;52.142;5.408;2022-07-15T03:54:40;102462.81;;;15.23;70.01
71764;BME280;59602;52.142;5.408;2022-07-15T03:57:07;102463.19;;;15.22;69.51
71764;BME280;59602;52.142;5.408;2022-07-15T03:59:33;102459.25;;;15.19;69.96
71764;BME280;59602;52.142;5.408;2022-07-15T04:02:00;102461.19;;;15.19;69.71
71764;BME280;59602;52.142;5.408;2022-07-15T04:04:26;102471.34;;;15.18;70.00
71764;BME280;59602;52.142;5.408;2022-07-15T04:06:53;102463.94;;;15.19;70.25
71764;BME280;59602;52.142;5.408;2022-07-15T04:09:20;102464.31;;;15.17;70.64
71764;BME280;59602;52.142;5.408;2022-07-15T04:11:46;102462.31;;;15.14;70.45
71764;BME280;59602;52.142;5.408;2022-07-15T04:14:13;102474.06;;;15.14;70.65
71764;BME280;59602;52.142;5.408;2022-07-15T04:16:41;102468.09;;;15.09;70.35
71764;BME280;59602;52.142;5.408;2022-07-15T04:19:08;102466.47;;;15.04;70.86
71764;BME280;59602;52.142;5.408;2022-07-15T04:21:35;102470.81;;;15.05;70.80
71764;BME280;59602;52.142;5.408;2022-07-15T04:24:02;102477.81;;;15.03;70.89
71764;BME280;59602;52.142;5.408;2022-07-15T04:26:29;102482.13;;;15.04;71.22
71764;BME280;59602;52.142;5.408;2022-07-15T04:28:56;102476.28;;;15.05;71.09
71764;BME280;59602;52.142;5.408;2022-07-15T04:31:23;102471.66;;;15.09;71.74
71764;BME280;59602;52.142;5.408;2022-07-15T04:33:49;102476.31;;;15.09;71.70
71764;BME280;59602;52.142;5.408;2022-07-15T04:36:16;102488.09;;;15.09;71.66
71764;BME280;59602;52.142;5.408;2022-07-15T04:38:42;102476.38;;;15.12;70.57
71764;BME280;59602;52.142;5.408;2022-07-15T04:41:09;102483.13;;;15.19;69.99
71764;BME280;59602;52.142;5.408;2022-07-15T04:43:35;102485.09;;;15.22;70.07
71764;BME280;59602;52.142;5.408;2022-07-15T04:46:02;102487.09;;;15.25;71.25
71764;BME280;59602;52.142;5.408;2022-07-15T04:48:29;102485.63;;;15.31;71.16
71764;BME280;59602;52.142;5.408;2022-07-15T04:51:14;102485.31;;;15.36;70.17
71764;BME280;59602;52.142;5.408;2022-07-15T04:53:41;102486.53;;;15.39;69.73
71764;BME280;59602;52.142;5.408;2022-07-15T04:56:08;102488.13;;;15.43;69.39
71764;BME280;59602;52.142;5.408;2022-07-15T04:58:34;102494.47;;;15.47;70.70
71764;BME280;59602;52.142;5.408;2022-07-15T05:01:01;102486.31;;;15.54;69.73
71764;BME280;59602;52.142;5.408;2022-07-15T05:03:29;102493.44;;;15.59;70.81
71764;BME280;59602;52.142;5.408;2022-07-15T05:05:55;102488.38;;;15.61;70.52
71764;BME280;59602;52.142;5.408;2022-07-15T05:08:22;102488.38;;;15.65;69.96
71764;BME280;59602;52.142;5.408;2022-07-15T05:10:49;102483.75;;;15.69;68.86
71764;BME280;59602;52.142;5.408;2022-07-15T05:13:15;102491.28;;;15.75;69.49
71764;BME280;59602;52.142;5.408;2022-07-15T05:15:42;102482.34;;;15.79;70.25
71764;BME280;59602;52.142;5.408;2022-07-15T05:18:08;102498.03;;;15.82;69.93
71764;BME280;59602;52.142;5.408;2022-07-15T05:20:35;102496.13;;;15.86;69.44
71764;BME280;59602;52.142;5.408;2022-07-15T05:23:01;102487.19;;;15.92;69.39
71764;BME280;59602;52.142;5.408;2022-07-15T05:25:28;102492.25;;;15.94;69.41
71764;BME280;59602;52.142;5.408;2022-07-15T05:27:55;102494.66;;;15.95;69.75
71764;BME280;59602;52.142;5.408;2022-07-15T05:30:23;102497.47;;;16.03;70.44
71764;BME280;59602;52.142;5.408;2022-07-15T05:32:49;102487.69;;;16.05;69.51
71764;BME280;59602;52.142;5.408;2022-07-15T05:35:16;102488.13;;;16.11;70.05
71764;BME280;59602;52.142;5.408;2022-07-15T05:37:42;102489.75;;;16.15;68.80
71764;BME280;59602;52.142;5.408;2022-07-15T05:40:09;102495.28;;;16.19;68.69
71764;BME280;59602;52.142;5.408;2022-07-15T05:42:38;102492.97;;;16.25;68.88
71764;BME280;59602;52.142;5.408;2022-07-15T05:45:05;102493.06;;;16.35;69.46
71764;BME280;59602;52.142;5.408;2022-07-15T05:47:31;102493.13;;;16.43;68.66
71764;BME280;59602;52.142;5.408;2022-07-15T05:49:59;102493.19;;;16.50;67.36
71764;BME280;59602;52.142;5.408;2022-07-15T05:52:26;102501.91;;;16.59;67.77
71764;BME280;59602;52.142;5.408;2022-07-15T05:54:52;102493.75;;;16.70;67.49
71764;BME280;59602;52.142;5.408;2022-07-15T05:57:19;102494.19;;;16.75;67.04
71764;BME280;59602;52.142;5.408;2022-07-15T05:59:45;102487.97;;;16.82;66.83
71764;BME280;59602;52.142;5.408;2022-07-15T06:02:12;102495.16;;;16.97;67.09
71764;BME280;59602;52.142;5.408;2022-07-15T06:04:41;102488.56;;;17.16;64.91
71764;BME280;59602;52.142;5.408;2022-07-15T06:07:07;102485.16;;;17.37;64.35
71764;BME280;59602;52.142;5.408;2022-07-15T06:09:36;102489.94;;;17.51;64.71
71764;BME280;59602;52.142;5.408;2022-07-15T06:12:03;102488.78;;;17.63;63.55
71764;BME280;59602;52.142;5.408;2022-07-15T06:14:29;102494.34;;;17.74;63.35
71764;BME280;59602;52.142;5.408;2022-07-15T06:17:03;102494.41;;;17.84;63.16
71764;BME280;59602;52.142;5.408;2022-07-15T06:19:30;102493.22;;;17.93;62.62
71764;BME280;59602;52.142;5.408;2022-07-15T06:21:56;102491.28;;;18.00;62.61
71764;BME280;59602;52.142;5.408;2022-07-15T06:24:23;102490.13;;;18.16;60.58
71764;BME280;59602;52.142;5.408;2022-07-15T06:26:50;102490.91;;;18.31;59.92
71764;BME280;59602;52.142;5.408;2022-07-15T06:29:18;102492.91;;;18.48;60.31
71764;BME280;59602;52.142;5.408;2022-07-15T06:31:46;102496.44;;;18.66;59.15
71764;BME280;59602;52.142;5.408;2022-07-15T06:34:17;102497.22;;;18.81;58.70
71764;BME280;59602;52.142;5.408;2022-07-15T06:36:43;102503.94;;;18.91;56.97
71764;BME280;59602;52.142;5.408;2022-07-15T06:39:10;102494.06;;;19.01;56.79
71764;BME280;59602;52.142;5.408;2022-07-15T06:41:37;102498.00;;;19.07;56.14
71764;BME280;59602;52.142;5.408;2022-07-15T06:44:03;102510.16;;;19.13;55.24
71764;BME280;59602;52.142;5.408;2022-07-15T06:46:31;102510.53;;;19.26;55.67
71764;BME280;59602;52.142;5.408;2022-07-15T06:48:58;102506.53;;;19.38;55.96
71764;BME280;59602;52.142;5.408;2022-07-15T06:51:25;102506.50;;;19.48;55.71
71764;BME280;59602;52.142;5.408;2022-07-15T06:53:52;102504.88;;;19.62;55.17
71764;BME280;59602;52.142;5.408;2022-07-15T06:56:18;102505.63;;;19.77;54.10
71764;BME280;59602;52.142;5.408;2022-07-15T06:58:47;102502.09;;;19.76;54.57
71764;BME280;59602;52.142;5.408;2022-07-15T07:01:13;102504.44;;;19.78;53.54
71764;BME280;59602;52.142;5.408;2022-07-15T07:03:40;102504.03;;;19.83;54.41
71764;BME280;59602;52.142;5.408;2022-07-15T07:06:25;102499.16;;;20.05;54.56
71764;BME280;59602;52.142;5.408;2022-07-15T07:08:52;102500.97;;;20.26;54.51
71764;BME280;59602;52.142;5.408;2022-07-15T07:11:19;102511.91;;;20.40;51.64
71764;BME280;59602;52.142;5.408;2022-07-15T07:13:47;102511.13;;;20.40;51.30
71764;BME280;59602;52.142;5.408;2022-07-15T07:16:14;102511.06;;;20.47;51.59
71764;BME280;59602;52.142;5.408;2022-07-15T07:18:41;102517.81;;;20.42;51.14
71764;BME280;59602;52.142;5.408;2022-07-15T07:21:08;102517.72;;;20.53;51.03
71764;BME280;59602;52.142;5.408;2022-07-15T07:23:36;102518.00;;;20.69;50.02
71764;BME280;59602;52.142;5.408;2022-07-15T07:26:06;102521.81;;;20.38;50.29
71764;BME280;59602;52.142;5.408;2022-07-15T07:28:33;102512.59;;;19.99;53.48
71764;BME280;59602;52.142;5.408;2022-07-15T07:30:59;102516.28;;;19.71;52.49
71764;BME280;59602;52.142;5.408;2022-07-15T07:33:26;102517.00;;;19.86;51.89
71764;BME280;59602;52.142;5.408;2022-07-15T07:35:53;102521.56;;;20.18;51.64
71764;BME280;59602;52.142;5.408;2022-07-15T07:38:20;102522.97;;;20.40;50.33
71764;BME280;59602;52.142;5.408;2022-07-15T07:40:46;102513.00;;;20.53;50.80
71764;BME280;59602;52.142;5.408;2022-07-15T07:43:15;102519.69;;;20.56;49.99
71764;BME280;59602;52.142;5.408;2022-07-15T07:45:44;102511.41;;;20.60;49.09
71764;BME280;59602;52.142;5.408;2022-07-15T07:48:11;102507.84;;;20.59;47.52
71764;BME280;59602;52.142;5.408;2022-07-15T07:50:38;102517.22;;;20.72;49.45
71764;BME280;59602;52.142;5.408;2022-07-15T07:53:05;102514.97;;;20.57;49.56
71764;BME280;59602;52.142;5.408;2022-07-15T07:55:32;102524.31;;;20.21;49.96
71764;BME280;59602;52.142;5.408;2022-07-15T07:57:58;102522.09;;;19.95;51.04
71764;BME280;59602;52.142;5.408;2022-07-15T08:00:27;102522.53;;;19.86;51.74
71764;BME280;59602;52.142;5.408;2022-07-15T08:02:56;102527.25;;;19.89;50.90
71764;BME280;59602;52.142;5.408;2022-07-15T08:05:23;102516.50;;;20.05;48.67
71764;BME280;59602;52.142;5.408;2022-07-15T08:07:51;102511.78;;;20.06;49.07
71764;BME280;59602;52.142;5.408;2022-07-15T08:10:31;102525.72;;;19.77;49.33
71764;BME280;59602;52.142;5.408;2022-07-15T08:12:57;102520.66;;;19.65;50.29
71764;BME280;59602;52.142;5.408;2022-07-15T08:15:24;102519.81;;;19.75;50.69
71764;BME280;59602;52.142;5.408;2022-07-15T08:17:50;102522.97;;;19.81;50.16
71764;BME280;59602;52.142;5.408;2022-07-15T08:20:17;102517.31;;;20.02;49.84
71764;BME280;59602;52.142;5.408;2022-07-15T08:22:43;102520.34;;;20.22;49.11
71764;BME280;59602;52.142;5.408;2022-07-15T08:25:10;102521.13;;;20.23;48.67
71764;BME280;59602;52.142;5.408;2022-07-15T08:27:37;102524.25;;;20.25;49.01
71764;BME280;59602;52.142;5.408;2022-07-15T08:30:04;102520.00;;;20.13;49.49
71764;BME280;59602;52.142;5.408;2022-07-15T08:32:31;102523.22;;;20.04;49.46
71764;BME280;59602;52.142;5.408;2022-07-15T08:34:57;102514.59;;;19.99;49.95
71764;BME280;59602;52.142;5.408;2022-07-15T08:37:30;102519.72;;;19.97;50.50
71764;BME280;59602;52.142;5.408;2022-07-15T08:39:56;102520.94;;;19.88;50.09
71764;BME280;59602;52.142;5.408;2022-07-15T08:42:23;102522.13;;;19.87;50.96
71764;BME280;59602;52.142;5.408;2022-07-15T08:44:50;102524.47;;;19.96;50.97
71764;BME280;59602;52.142;5.408;2022-07-15T08:47:21;102514.53;;;20.06;50.06
71764;BME280;59602;52.142;5.408;2022-07-15T08:50:11;102516.91;;;20.04;47.77
71764;BME280;59602;52.142;5.408;2022-07-15T08:52:39;102506.63;;;20.08;48.85
71764;BME280;59602;52.142;5.408;2022-07-15T08:55:07;102512.47;;;20.21;47.80
71764;BME280;59602;52.142;5.408;2022-07-15T08:57:33;102512.47;;;20.21;45.40
71764;BME280;59602;52.142;5.408;2022-07-15T09:00:00;102514.16;;;20.04;45.46
71764;BME280;59602;52.142;5.408;2022-07-15T09:02:27;102507.91;;;19.96;47.71
71764;BME280;59602;52.142;5.408;2022-07-15T09:07:52;102510.03;;;20.30;46.56
71764;BME280;59602;52.142;5.408;2022-07-15T09:10:21;102509.13;;;20.44;46.71
71764;BME280;59602;52.142;5.408;2022-07-15T09:12:50;102504.31;;;20.51;46.53
71764;BME280;59602;52.142;5.408;2022-07-15T09:15:35;102503.88;;;20.60;47.02
71764;BME280;59602;52.142;5.408;2022-07-15T09:20:30;102504.31;;;20.51;47.87
71764;BME280;59602;52.142;5.408;2022-07-15T09:22:57;102500.91;;;20.37;46.25
71764;BME280;59602;52.142;5.408;2022-07-15T09:25:24;102512.41;;;20.28;47.50
71764;BME280;59602;52.142;5.408;2022-07-15T09:27:52;102498.94;;;20.33;50.45
71764;BME280;59602;52.142;5.408;2022-07-15T09:30:25;102500.41;;;20.49;46.74
71764;BME280;59602;52.142;5.408;2022-07-15T09:33:13;102501.16;;;20.53;46.24
71764;BME280;59602;52.142;5.408;2022-07-15T09:36:20;102488.50;;;20.59;45.52
71764;BME280;59602;52.142;5.408;2022-07-15T09:43:47;102491.13;;;20.73;45.84
71764;BME280;59602;52.142;5.408;2022-07-15T09:46:14;102495.69;;;20.91;47.51
71764;BME280;59602;52.142;5.408;2022-07-15T09:48:43;102492.06;;;20.98;45.62
71764;BME280;59602;52.142;5.408;2022-07-15T09:51:11;102485.75;;;20.97;44.92
71764;BME280;59602;52.142;5.408;2022-07-15T09:53:39;102493.31;;;20.93;44.57
71764;BME280;59602;52.142;5.408;2022-07-15T09:56:10;102491.38;;;20.90;45.95
71764;BME280;59602;52.142;5.408;2022-07-15T09:58:39;102497.59;;;20.98;45.71
71764;BME280;59602;52.142;5.408;2022-07-15T10:01:08;102483.47;;;20.92;46.81
71764;BME280;59602;52.142;5.408;2022-07-15T10:03:37;102488.56;;;20.93;46.76
71764;BME280;59602;52.142;5.408;2022-07-15T10:06:04;102483.84;;;21.28;44.24
71764;BME280;59602;52.142;5.408;2022-07-15T10:08:32;102480.78;;;21.53;44.94
71764;BME280;59602;52.142;5.408;2022-07-15T10:10:59;102472.22;;;21.71;42.57
71764;BME280;59602;52.142;5.408;2022-07-15T10:19:12;102483.34;;;21.68;41.83
71764;BME280;59602;52.142;5.408;2022-07-15T10:21:48;102472.50;;;21.50;39.51
71764;BME280;59602;52.142;5.408;2022-07-15T10:24:46;102468.81;;;21.60;40.49
71764;BME280;59602;52.142;5.408;2022-07-15T10:29:56;102473.00;;;21.72;42.52
71764;BME280;59602;52.142;5.408;2022-07-15T10:32:22;102475.25;;;21.81;39.59
71764;BME280;59602;52.142;5.408;2022-07-15T10:34:49;102480.69;;;21.88;42.29
71764;BME280;59602;52.142;5.408;2022-07-15T10:37:16;102462.41;;;21.94;40.50
71764;BME280;59602;52.142;5.408;2022-07-15T10:42:12;102463.41;;;21.80;41.75
71764;BME280;59602;52.142;5.408;2022-07-15T10:45:02;102455.72;;;21.91;43.71
71764;BME280;59602;52.142;5.408;2022-07-15T10:47:30;102457.53;;;22.02;43.65
71764;BME280;59602;52.142;5.408;2022-07-15T10:49:57;102448.44;;;22.01;42.62
71764;BME280;59602;52.142;5.408;2022-07-15T10:52:25;102452.47;;;21.96;42.83
71764;BME280;59602;52.142;5.408;2022-07-15T11:03:03;102440.41;;;21.56;43.60
71764;BME280;59602;52.142;5.408;2022-07-15T11:05:31;102436.22;;;21.44;44.86
71764;BME280;59602;52.142;5.408;2022-07-15T11:07:58;102438.72;;;21.31;44.20
71764;BME280;59602;52.142;5.408;2022-07-15T11:10:25;102422.97;;;21.28;45.50
71764;BME280;59602;52.142;5.408;2022-07-15T11:15:20;102419.53;;;22.02;42.75
71764;BME280;59602;52.142;5.408;2022-07-15T11:17:52;102429.03;;;22.28;40.95
71764;BME280;59602;52.142;5.408;2022-07-15T11:20:29;102422.13;;;22.60;40.37
71764;BME280;59602;52.142;5.408;2022-07-15T11:22:58;102423.44;;;22.75;40.31
71764;BME280;59602;52.142;5.408;2022-07-15T11:25:31;102431.81;;;22.72;43.11
71764;BME280;59602;52.142;5.408;2022-07-15T11:28:01;102425.97;;;22.46;41.41
71764;BME280;59602;52.142;5.408;2022-07-15T11:30:34;102417.25;;;22.21;43.06
71764;BME280;59602;52.142;5.408;2022-07-15T11:33:02;102418.69;;;22.05;43.05
71764;BME280;59602;52.142;5.408;2022-07-15T11:35:30;102421.69;;;21.91;43.47
71764;BME280;59602;52.142;5.408;2022-07-15T11:38:00;102431.72;;;21.81;43.99
71764;BME280;59602;52.142;5.408;2022-07-15T11:40:29;102426.88;;;21.89;42.91
71764;BME280;59602;52.142;5.408;2022-07-15T11:43:19;102421.94;;;22.00;43.49
71764;BME280;59602;52.142;5.408;2022-07-15T11:49:28;102422.47;;;21.91;41.90
71764;BME280;59602;52.142;5.408;2022-07-15T11:51:56;102418.97;;;21.87;41.40
71764;BME280;59602;52.142;5.408;2022-07-15T11:54:23;102419.09;;;21.80;42.28
71764;BME280;59602;52.142;5.408;2022-07-15T11:56:53;102409.28;;;21.75;42.88
71764;BME280;59602;52.142;5.408;2022-07-15T11:59:21;102412.94;;;21.69;44.86
71764;BME280;59602;52.142;5.408;2022-07-15T12:01:47;102404.59;;;21.72;43.55
71764;BME280;59602;52.142;5.408;2022-07-15T12:04:15;102413.16;;;21.82;43.58
71764;BME280;59602;52.142;5.408;2022-07-15T12:06:41;102412.91;;;21.96;43.47
71764;BME280;59602;52.142;5.408;2022-07-15T12:09:08;102419.47;;;22.06;43.26
71764;BME280;59602;52.142;5.408;2022-07-15T12:11:37;102420.63;;;22.08;42.13
71764;BME280;59602;52.142;5.408;2022-07-15T12:14:07;102416.88;;;22.18;41.42
71764;BME280;59602;52.142;5.408;2022-07-15T12:16:41;102411.56;;;22.31;41.73
71764;BME280;59602;52.142;5.408;2022-07-15T12:19:13;102414.41;;;22.48;42.84
71764;BME280;59602;52.142;5.408;2022-07-15T12:21:43;102414.59;;;22.80;41.34
71764;BME280;59602;52.142;5.408;2022-07-15T12:24:12;102408.78;;;23.15;41.32
71764;BME280;59602;52.142;5.408;2022-07-15T12:26:54;102405.56;;;23.16;40.28
71764;BME280;59602;52.142;5.408;2022-07-15T12:29:24;102412.97;;;22.83;41.80
71764;BME280;59602;52.142;5.408;2022-07-15T12:32:14;102422.13;;;22.60;43.20
71764;BME280;59602;52.142;5.408;2022-07-15T12:34:48;102413.28;;;22.45;41.92
71764;BME280;59602;52.142;5.408;2022-07-15T12:37:18;102416.72;;;22.29;42.43
71764;BME280;59602;52.142;5.408;2022-07-15T12:40:03;102417.16;;;22.28;43.14
71764;BME280;59602;52.142;5.408;2022-07-15T12:42:38;102421.50;;;22.29;43.12
71764;BME280;59602;52.142;5.408;2022-07-15T12:45:13;102427.91;;;22.46;43.71
71764;BME280;59602;52.142;5.408;2022-07-15T12:50:36;102426.88;;;22.40;44.19
71764;BME280;59602;52.142;5.408;2022-07-15T12:55:43;102415.22;;;22.25;43.83
71764;BME280;59602;52.142;5.408;2022-07-15T12:58:14;102417.22;;;22.24;44.56
71764;BME280;59602;52.142;5.408;2022-07-15T13:00:42;102427.94;;;22.22;45.78
71764;BME280;59602;52.142;5.408;2022-07-15T13:03:14;102415.25;;;22.21;44.20
71764;BME280;59602;52.142;5.408;2022-07-15T13:05:51;102415.97;;;22.29;44.44
71764;BME280;59602;52.142;5.408;2022-07-15T13:08:23;102423.72;;;22.37;45.20
71764;BME280;59602;52.142;5.408;2022-07-15T13:11:06;102419.59;;;22.46;45.03
71764;BME280;59602;52.142;5.408;2022-07-15T13:13:35;102423.53;;;22.48;42.62
71764;BME280;59602;52.142;5.408;2022-07-15T13:16:03;102414.91;;;22.43;44.42
71764;BME280;59602;52.142;5.408;2022-07-15T13:18:34;102420.28;;;22.53;44.52
71764;BME280;59602;52.142;5.408;2022-07-15T13:21:18;102419.00;;;22.58;43.68
71764;BME280;59602;52.142;5.408;2022-07-15T13:23:49;102414.38;;;22.51;44.66
71764;BME280;59602;52.142;5.408;2022-07-15T13:26:17;102410.94;;;22.44;43.06
71764;BME280;59602;52.142;5.408;2022-07-15T13:28:44;102406.75;;;22.35;44.28
71764;BME280;59602;52.142;5.408;2022-07-15T13:31:11;102402.47;;;22.31;44.28
71764;BME280;59602;52.142;5.408;2022-07-15T13:33:37;102402.88;;;22.29;45.75
71764;BME280;59602;52.142;5.408;2022-07-15T13:36:15;102409.69;;;22.25;44.99
71764;BME280;59602;52.142;5.408;2022-07-15T13:38:47;102406.16;;;22.21;43.88